KISO/ISO METAR and TAF weather

Enter ICAO airport designator
Station Type Date Time Source
KISO METAR 2019/11/14 04:15 UTC NOAA

KISO 140415Z AUTO 00000KT 10SM CLR M03/M05 A3046 RMK AO2 T10331052


Station Type Date Time Source
KISO Decoded METAR 2019/11/14 04:15 UTC NOAA

Kinston, Kinston Regional Jetport at Stallings Field, NC, United States (KISO) 35-20N 077-37W
Nov 13, 2019 - 11:15 PM EST / 2019.11.14 0415 UTC
Wind: Calm:0
Visibility: 10 mile(s):0
Sky conditions: clear
Temperature: 26.1 F (-3.3 C)
Dew Point: 22.6 F (-5.2 C)
Relative Humidity: 86%
Pressure (altimeter): 30.46 in. Hg (1031 hPa)
ob: KISO 140415Z AUTO 00000KT 10SM CLR M03/M05 A3046 RMK AO2 T10331052
cycle: 4

Station Type Date Time Source
KISO TAF 2019/11/13 18:42 UTC NOAA

TAF KISO 131738Z 1318/1418 02010KT P6SM SKC
FM140200 VRB03KT P6SM FEW030
AMD LTD TO CLD VIS AND WIND

Example: see airport list